sensor_id;sensor_type;location;lat;lon;timestamp;pressure;altitude;pressure_sealevel;temperature
12061;BMP180;6091;51.432;6.880;2022-08-20T00:02:44;100782.00;;;30.80
12061;BMP180;6091;51.432;6.880;2022-08-20T00:05:13;100773.00;;;30.80
12061;BMP180;6091;51.432;6.880;2022-08-20T00:07:40;100776.00;;;30.80
12061;BMP180;6091;51.432;6.880;2022-08-20T00:10:08;100770.00;;;30.80
12061;BMP180;6091;51.432;6.880;2022-08-20T00:12:36;100777.00;;;30.80
12061;BMP180;6091;51.432;6.880;2022-08-20T00:15:05;100772.00;;;30.80
12061;BMP180;6091;51.432;6.880;2022-08-20T00:17:32;100769.00;;;30.80
12061;BMP180;6091;51.432;6.880;2022-08-20T00:20:11;100772.00;;;30.80
12061;BMP180;6091;51.432;6.880;2022-08-20T00:22:38;100766.00;;;30.80
12061;BMP180;6091;51.432;6.880;2022-08-20T00:25:07;100773.00;;;30.80
12061;BMP180;6091;51.432;6.880;2022-08-20T00:27:35;100773.00;;;30.80
12061;BMP180;6091;51.432;6.880;2022-08-20T00:30:06;100766.00;;;30.80
12061;BMP180;6091;51.432;6.880;2022-08-20T00:35:10;100776.00;;;30.80
12061;BMP180;6091;51.432;6.880;2022-08-20T00:37:38;100771.00;;;30.80
12061;BMP180;6091;51.432;6.880;2022-08-20T00:40:08;100770.00;;;30.70
12061;BMP180;6091;51.432;6.880;2022-08-20T00:42:54;100766.00;;;30.70
12061;BMP180;6091;51.432;6.880;2022-08-20T00:45:31;100763.00;;;30.70
12061;BMP180;6091;51.432;6.880;2022-08-20T00:48:02;100769.00;;;30.70
12061;BMP180;6091;51.432;6.880;2022-08-20T00:50:35;100774.00;;;30.70
12061;BMP180;6091;51.432;6.880;2022-08-20T00:53:05;100774.00;;;30.80
12061;BMP180;6091;51.432;6.880;2022-08-20T00:55:35;100764.00;;;30.70
12061;BMP180;6091;51.432;6.880;2022-08-20T00:58:07;100770.00;;;30.80
12061;BMP180;6091;51.432;6.880;2022-08-20T01:00:42;100770.00;;;30.80
12061;BMP180;6091;51.432;6.880;2022-08-20T01:03:14;100769.00;;;30.80
12061;BMP180;6091;51.432;6.880;2022-08-20T01:05:46;100764.00;;;30.80
12061;BMP180;6091;51.432;6.880;2022-08-20T01:08:18;100758.00;;;30.80
12061;BMP180;6091;51.432;6.880;2022-08-20T01:10:51;100767.00;;;30.80
12061;BMP180;6091;51.432;6.880;2022-08-20T01:13:30;100757.00;;;30.80
12061;BMP180;6091;51.432;6.880;2022-08-20T01:15:58;100768.00;;;30.80
12061;BMP180;6091;51.432;6.880;2022-08-20T01:18:27;100756.00;;;30.80
12061;BMP180;6091;51.432;6.880;2022-08-20T01:21:01;100769.00;;;30.80
12061;BMP180;6091;51.432;6.880;2022-08-20T01:23:44;100775.00;;;30.80
12061;BMP180;6091;51.432;6.880;2022-08-20T01:26:24;100771.00;;;30.80
12061;BMP180;6091;51.432;6.880;2022-08-20T01:29:18;100778.00;;;30.80
12061;BMP180;6091;51.432;6.880;2022-08-20T01:31:45;100776.00;;;30.80
12061;BMP180;6091;51.432;6.880;2022-08-20T01:34:18;100780.00;;;30.90
12061;BMP180;6091;51.432;6.880;2022-08-20T01:36:53;100784.00;;;30.90
12061;BMP180;6091;51.432;6.880;2022-08-20T01:39:27;100780.00;;;30.90
12061;BMP180;6091;51.432;6.880;2022-08-20T01:42:18;100781.00;;;30.90
12061;BMP180;6091;51.432;6.880;2022-08-20T01:44:46;100790.00;;;30.90
12061;BMP180;6091;51.432;6.880;2022-08-20T01:47:25;100804.00;;;30.90
12061;BMP180;6091;51.432;6.880;2022-08-20T01:50:07;100796.00;;;30.90
12061;BMP180;6091;51.432;6.880;2022-08-20T01:55:32;100795.00;;;30.80
12061;BMP180;6091;51.432;6.880;2022-08-20T01:58:00;100792.00;;;30.90
12061;BMP180;6091;51.432;6.880;2022-08-20T02:00:27;100806.00;;;30.90
12061;BMP180;6091;51.432;6.880;2022-08-20T02:02:54;100799.00;;;30.90
12061;BMP180;6091;51.432;6.880;2022-08-20T02:05:21;100801.00;;;30.90
12061;BMP180;6091;51.432;6.880;2022-08-20T02:07:49;100804.00;;;30.90
12061;BMP180;6091;51.432;6.880;2022-08-20T02:10:17;100800.00;;;31.00
12061;BMP180;6091;51.432;6.880;2022-08-20T02:12:44;100792.00;;;30.90
12061;BMP180;6091;51.432;6.880;2022-08-20T02:15:12;100797.00;;;31.00
12061;BMP180;6091;51.432;6.880;2022-08-20T02:17:39;100797.00;;;31.00
12061;BMP180;6091;51.432;6.880;2022-08-20T02:20:18;100798.00;;;31.00
12061;BMP180;6091;51.432;6.880;2022-08-20T02:22:52;100801.00;;;30.90
12061;BMP180;6091;51.432;6.880;2022-08-20T02:25:24;100798.00;;;30.90
12061;BMP180;6091;51.432;6.880;2022-08-20T02:27:54;100793.00;;;30.90
12061;BMP180;6091;51.432;6.880;2022-08-20T02:30:38;100805.00;;;30.90
12061;BMP180;6091;51.432;6.880;2022-08-20T02:33:09;100801.00;;;30.90
12061;BMP180;6091;51.432;6.880;2022-08-20T02:35:39;100801.00;;;30.90
12061;BMP180;6091;51.432;6.880;2022-08-20T02:38:11;100795.00;;;30.90
12061;BMP180;6091;51.432;6.880;2022-08-20T02:40:39;100796.00;;;30.90
12061;BMP180;6091;51.432;6.880;2022-08-20T02:43:07;100792.00;;;30.90
12061;BMP180;6091;51.432;6.880;2022-08-20T02:45:34;100791.00;;;30.90
12061;BMP180;6091;51.432;6.880;2022-08-20T02:48:15;100792.00;;;30.90
12061;BMP180;6091;51.432;6.880;2022-08-20T02:50:57;100782.00;;;30.90
12061;BMP180;6091;51.432;6.880;2022-08-20T02:53:29;100789.00;;;30.90
12061;BMP180;6091;51.432;6.880;2022-08-20T02:55:57;100777.00;;;30.90
12061;BMP180;6091;51.432;6.880;2022-08-20T02:58:25;100777.00;;;30.90
12061;BMP180;6091;51.432;6.880;2022-08-20T03:00:53;100779.00;;;30.90
12061;BMP180;6091;51.432;6.880;2022-08-20T03:03:22;100782.00;;;30.90
12061;BMP180;6091;51.432;6.880;2022-08-20T03:05:54;100784.00;;;30.90
12061;BMP180;6091;51.432;6.880;2022-08-20T03:08:23;100788.00;;;30.90
12061;BMP180;6091;51.432;6.880;2022-08-20T03:10:51;100784.00;;;30.90
12061;BMP180;6091;51.432;6.880;2022-08-20T03:13:19;100781.00;;;30.90
12061;BMP180;6091;51.432;6.880;2022-08-20T03:15:53;100777.00;;;30.90
12061;BMP180;6091;51.432;6.880;2022-08-20T03:18:37;100777.00;;;30.90
12061;BMP180;6091;51.432;6.880;2022-08-20T03:21:07;100773.00;;;30.90
12061;BMP180;6091;51.432;6.880;2022-08-20T03:23:37;100784.00;;;30.90
12061;BMP180;6091;51.432;6.880;2022-08-20T03:26:10;100787.00;;;30.90
12061;BMP180;6091;51.432;6.880;2022-08-20T03:28:38;100789.00;;;30.90
12061;BMP180;6091;51.432;6.880;2022-08-20T03:31:06;100772.00;;;30.90
12061;BMP180;6091;51.432;6.880;2022-08-20T03:33:33;100786.00;;;30.90
12061;BMP180;6091;51.432;6.880;2022-08-20T03:36:00;100791.00;;;30.90
12061;BMP180;6091;51.432;6.880;2022-08-20T03:38:27;100788.00;;;30.90
12061;BMP180;6091;51.432;6.880;2022-08-20T03:41:00;100794.00;;;30.90
12061;BMP180;6091;51.432;6.880;2022-08-20T03:43:27;100782.00;;;30.90
12061;BMP180;6091;51.432;6.880;2022-08-20T03:45:55;100773.00;;;30.90
12061;BMP180;6091;51.432;6.880;2022-08-20T03:48:22;100770.00;;;30.90
12061;BMP180;6091;51.432;6.880;2022-08-20T03:50:50;100765.00;;;30.90
12061;BMP180;6091;51.432;6.880;2022-08-20T03:53:17;100766.00;;;30.90
12061;BMP180;6091;51.432;6.880;2022-08-20T03:55:47;100769.00;;;30.90
12061;BMP180;6091;51.432;6.880;2022-08-20T03:58:21;100768.00;;;30.90
12061;BMP180;6091;51.432;6.880;2022-08-20T04:00:59;100763.00;;;30.80
12061;BMP180;6091;51.432;6.880;2022-08-20T04:03:27;100766.00;;;30.90
12061;BMP180;6091;51.432;6.880;2022-08-20T04:05:54;100761.00;;;30.90
12061;BMP180;6091;51.432;6.880;2022-08-20T04:08:25;100763.00;;;30.90
12061;BMP180;6091;51.432;6.880;2022-08-20T04:10:54;100768.00;;;30.90
12061;BMP180;6091;51.432;6.880;2022-08-20T04:13:25;100766.00;;;30.80
12061;BMP180;6091;51.432;6.880;2022-08-20T04:15:53;100772.00;;;30.90
12061;BMP180;6091;51.432;6.880;2022-08-20T04:18:24;100779.00;;;30.80
12061;BMP180;6091;51.432;6.880;2022-08-20T04:20:53;100774.00;;;30.80
12061;BMP180;6091;51.432;6.880;2022-08-20T04:23:21;100779.00;;;30.80
12061;BMP180;6091;51.432;6.880;2022-08-20T04:25:48;100785.00;;;30.80
12061;BMP180;6091;51.432;6.880;2022-08-20T04:28:20;100789.00;;;30.80
12061;BMP180;6091;51.432;6.880;2022-08-20T04:30:55;100786.00;;;30.80
12061;BMP180;6091;51.432;6.880;2022-08-20T04:33:23;100785.00;;;30.80
12061;BMP180;6091;51.432;6.880;2022-08-20T04:36:02;100795.00;;;30.80
12061;BMP180;6091;51.432;6.880;2022-08-20T04:38:31;100800.00;;;30.80
12061;BMP180;6091;51.432;6.880;2022-08-20T04:41:20;100799.00;;;30.80
12061;BMP180;6091;51.432;6.880;2022-08-20T04:43:51;100803.00;;;30.80
12061;BMP180;6091;51.432;6.880;2022-08-20T04:46:23;100808.00;;;30.80
12061;BMP180;6091;51.432;6.880;2022-08-20T04:48:52;100809.00;;;30.80
12061;BMP180;6091;51.432;6.880;2022-08-20T04:51:20;100813.00;;;30.80
12061;BMP180;6091;51.432;6.880;2022-08-20T04:53:50;100824.00;;;30.80
12061;BMP180;6091;51.432;6.880;2022-08-20T04:56:22;100824.00;;;30.80
12061;BMP180;6091;51.432;6.880;2022-08-20T04:58:55;100825.00;;;30.80
12061;BMP180;6091;51.432;6.880;2022-08-20T05:01:23;100824.00;;;30.80
12061;BMP180;6091;51.432;6.880;2022-08-20T05:03:53;100818.00;;;30.80
12061;BMP180;6091;51.432;6.880;2022-08-20T05:06:25;100828.00;;;30.80
12061;BMP180;6091;51.432;6.880;2022-08-20T05:08:57;100831.00;;;30.80
12061;BMP180;6091;51.432;6.880;2022-08-20T05:11:25;100832.00;;;30.80
12061;BMP180;6091;51.432;6.880;2022-08-20T05:14:06;100836.00;;;30.80
12061;BMP180;6091;51.432;6.880;2022-08-20T05:16:38;100829.00;;;30.80
12061;BMP180;6091;51.432;6.880;2022-08-20T05:19:10;100820.00;;;30.80
12061;BMP180;6091;51.432;6.880;2022-08-20T05:21:38;100823.00;;;30.80
12061;BMP180;6091;51.432;6.880;2022-08-20T05:24:06;100837.00;;;30.80
12061;BMP180;6091;51.432;6.880;2022-08-20T05:26:33;100838.00;;;30.80
12061;BMP180;6091;51.432;6.880;2022-08-20T05:29:01;100835.00;;;30.80
12061;BMP180;6091;51.432;6.880;2022-08-20T05:31:31;100819.00;;;30.80
12061;BMP180;6091;51.432;6.880;2022-08-20T05:34:07;100833.00;;;30.80
12061;BMP180;6091;51.432;6.880;2022-08-20T05:36:44;100836.00;;;30.80
12061;BMP180;6091;51.432;6.880;2022-08-20T05:39:17;100843.00;;;30.80
12061;BMP180;6091;51.432;6.880;2022-08-20T05:41:47;100833.00;;;30.80
12061;BMP180;6091;51.432;6.880;2022-08-20T05:44:17;100834.00;;;30.80
12061;BMP180;6091;51.432;6.880;2022-08-20T05:46:46;100836.00;;;30.80
12061;BMP180;6091;51.432;6.880;2022-08-20T05:49:19;100832.00;;;30.80
12061;BMP180;6091;51.432;6.880;2022-08-20T05:51:48;100845.00;;;30.80
12061;BMP180;6091;51.432;6.880;2022-08-20T05:54:17;100846.00;;;30.80
12061;BMP180;6091;51.432;6.880;2022-08-20T05:56:44;100850.00;;;30.80
12061;BMP180;6091;51.432;6.880;2022-08-20T05:59:11;100830.00;;;30.80
12061;BMP180;6091;51.432;6.880;2022-08-20T06:01:41;100849.00;;;30.80
12061;BMP180;6091;51.432;6.880;2022-08-20T06:04:09;100849.00;;;30.80
12061;BMP180;6091;51.432;6.880;2022-08-20T06:07:04;100852.00;;;30.80
12061;BMP180;6091;51.432;6.880;2022-08-20T06:09:32;100848.00;;;30.80
12061;BMP180;6091;51.432;6.880;2022-08-20T06:12:04;100847.00;;;30.80
12061;BMP180;6091;51.432;6.880;2022-08-20T06:14:33;100843.00;;;30.70
12061;BMP180;6091;51.432;6.880;2022-08-20T06:17:11;100848.00;;;30.80
12061;BMP180;6091;51.432;6.880;2022-08-20T06:19:43;100844.00;;;30.60
12061;BMP180;6091;51.432;6.880;2022-08-20T06:22:14;100850.00;;;30.70
12061;BMP180;6091;51.432;6.880;2022-08-20T06:24:53;100836.00;;;30.70
12061;BMP180;6091;51.432;6.880;2022-08-20T06:27:21;100837.00;;;30.70
12061;BMP180;6091;51.432;6.880;2022-08-20T06:29:49;100844.00;;;30.70
12061;BMP180;6091;51.432;6.880;2022-08-20T06:32:18;100843.00;;;30.70
12061;BMP180;6091;51.432;6.880;2022-08-20T06:35:03;100838.00;;;30.80
12061;BMP180;6091;51.432;6.880;2022-08-20T06:37:34;100844.00;;;30.80
12061;BMP180;6091;51.432;6.880;2022-08-20T06:40:22;100843.00;;;30.80
12061;BMP180;6091;51.432;6.880;2022-08-20T06:42:51;100838.00;;;30.80
12061;BMP180;6091;51.432;6.880;2022-08-20T06:45:24;100848.00;;;30.70
12061;BMP180;6091;51.432;6.880;2022-08-20T06:47:54;100839.00;;;30.70
12061;BMP180;6091;51.432;6.880;2022-08-20T06:50:35;100851.00;;;30.70
12061;BMP180;6091;51.432;6.880;2022-08-20T06:53:17;100852.00;;;30.70
12061;BMP180;6091;51.432;6.880;2022-08-20T06:55:51;100858.00;;;30.70
12061;BMP180;6091;51.432;6.880;2022-08-20T06:58:22;100861.00;;;30.70
12061;BMP180;6091;51.432;6.880;2022-08-20T07:01:07;100852.00;;;30.70
12061;BMP180;6091;51.432;6.880;2022-08-20T07:03:38;100862.00;;;30.70
12061;BMP180;6091;51.432;6.880;2022-08-20T07:06:20;100863.00;;;30.70
12061;BMP180;6091;51.432;6.880;2022-08-20T07:08:47;100864.00;;;30.60
12061;BMP180;6091;51.432;6.880;2022-08-20T07:11:14;100861.00;;;30.60
12061;BMP180;6091;51.432;6.880;2022-08-20T07:13:41;100850.00;;;30.50
12061;BMP180;6091;51.432;6.880;2022-08-20T07:16:08;100854.00;;;30.60
12061;BMP180;6091;51.432;6.880;2022-08-20T07:18:35;100855.00;;;30.50
12061;BMP180;6091;51.432;6.880;2022-08-20T07:21:02;100863.00;;;30.60
12061;BMP180;6091;51.432;6.880;2022-08-20T07:23:29;100870.00;;;30.60
12061;BMP180;6091;51.432;6.880;2022-08-20T07:25:57;100863.00;;;30.60
12061;BMP180;6091;51.432;6.880;2022-08-20T07:28:26;100860.00;;;30.60
12061;BMP180;6091;51.432;6.880;2022-08-20T07:30:58;100863.00;;;30.50
12061;BMP180;6091;51.432;6.880;2022-08-20T07:33:46;100864.00;;;30.50
12061;BMP180;6091;51.432;6.880;2022-08-20T07:36:17;100863.00;;;30.40
12061;BMP180;6091;51.432;6.880;2022-08-20T07:38:44;100869.00;;;30.40
12061;BMP180;6091;51.432;6.880;2022-08-20T07:41:13;100874.00;;;30.30
12061;BMP180;6091;51.432;6.880;2022-08-20T07:43:42;100870.00;;;30.30
12061;BMP180;6091;51.432;6.880;2022-08-20T07:46:14;100875.00;;;30.30
12061;BMP180;6091;51.432;6.880;2022-08-20T07:48:44;100885.00;;;30.30
12061;BMP180;6091;51.432;6.880;2022-08-20T07:51:14;100882.00;;;30.30
12061;BMP180;6091;51.432;6.880;2022-08-20T07:53:49;100887.00;;;30.30
12061;BMP180;6091;51.432;6.880;2022-08-20T07:56:23;100883.00;;;30.30
12061;BMP180;6091;51.432;6.880;2022-08-20T07:58:54;100889.00;;;30.30
12061;BMP180;6091;51.432;6.880;2022-08-20T08:01:29;100887.00;;;30.30
12061;BMP180;6091;51.432;6.880;2022-08-20T08:03:58;100898.00;;;30.30
12061;BMP180;6091;51.432;6.880;2022-08-20T08:06:30;100895.00;;;30.30
12061;BMP180;6091;51.432;6.880;2022-08-20T08:09:07;100889.00;;;30.30
12061;BMP180;6091;51.432;6.880;2022-08-20T08:11:39;100897.00;;;30.30
12061;BMP180;6091;51.432;6.880;2022-08-20T08:14:15;100888.00;;;30.30
12061;BMP180;6091;51.432;6.880;2022-08-20T08:16:42;100890.00;;;30.30
12061;BMP180;6091;51.432;6.880;2022-08-20T08:19:14;100894.00;;;30.40
12061;BMP180;6091;51.432;6.880;2022-08-20T08:21:42;100897.00;;;30.30
12061;BMP180;6091;51.432;6.880;2022-08-20T08:24:10;100891.00;;;30.30
12061;BMP180;6091;51.432;6.880;2022-08-20T08:26:43;100899.00;;;30.30
12061;BMP180;6091;51.432;6.880;2022-08-20T08:29:10;100903.00;;;30.30
12061;BMP180;6091;51.432;6.880;2022-08-20T08:31:38;100907.00;;;30.20
12061;BMP180;6091;51.432;6.880;2022-08-20T08:34:07;100919.00;;;30.20
12061;BMP180;6091;51.432;6.880;2022-08-20T08:36:34;100901.00;;;30.20
12061;BMP180;6091;51.432;6.880;2022-08-20T08:39:02;100913.00;;;30.20
12061;BMP180;6091;51.432;6.880;2022-08-20T08:41:42;100910.00;;;30.10
12061;BMP180;6091;51.432;6.880;2022-08-20T08:44:24;100913.00;;;30.10
12061;BMP180;6091;51.432;6.880;2022-08-20T08:47:14;100906.00;;;30.10
12061;BMP180;6091;51.432;6.880;2022-08-20T08:49:46;100908.00;;;30.10
12061;BMP180;6091;51.432;6.880;2022-08-20T08:52:23;100914.00;;;30.10
12061;BMP180;6091;51.432;6.880;2022-08-20T08:54:59;100917.00;;;30.10
12061;BMP180;6091;51.432;6.880;2022-08-20T08:57:29;100921.00;;;30.10
12061;BMP180;6091;51.432;6.880;2022-08-20T09:00:11;100921.00;;;30.10
12061;BMP180;6091;51.432;6.880;2022-08-20T09:03:05;100914.00;;;30.10
12061;BMP180;6091;51.432;6.880;2022-08-20T09:05:48;100926.00;;;30.10
12061;BMP180;6091;51.432;6.880;2022-08-20T09:08:22;100942.00;;;30.10
12061;BMP180;6091;51.432;6.880;2022-08-20T09:10:50;100928.00;;;30.10
12061;BMP180;6091;51.432;6.880;2022-08-20T09:13:18;100940.00;;;30.10
12061;BMP180;6091;51.432;6.880;2022-08-20T09:15:45;100939.00;;;30.10
12061;BMP180;6091;51.432;6.880;2022-08-20T09:18:12;100939.00;;;30.20
12061;BMP180;6091;51.432;6.880;2022-08-20T09:20:39;100933.00;;;30.20
12061;BMP180;6091;51.432;6.880;2022-08-20T09:23:06;100940.00;;;30.20
12061;BMP180;6091;51.432;6.880;2022-08-20T09:25:33;100939.00;;;30.20
12061;BMP180;6091;51.432;6.880;2022-08-20T09:28:00;100951.00;;;30.10
12061;BMP180;6091;51.432;6.880;2022-08-20T09:30:29;100949.00;;;30.10
12061;BMP180;6091;51.432;6.880;2022-08-20T09:33:01;100947.00;;;30.10
12061;BMP180;6091;51.432;6.880;2022-08-20T09:35:28;100956.00;;;30.10
12061;BMP180;6091;51.432;6.880;2022-08-20T09:37:56;100945.00;;;30.10
12061;BMP180;6091;51.432;6.880;2022-08-20T09:40:23;100944.00;;;30.10
12061;BMP180;6091;51.432;6.880;2022-08-20T09:42:50;100941.00;;;30.10
12061;BMP180;6091;51.432;6.880;2022-08-20T09:45:19;100951.00;;;30.10
12061;BMP180;6091;51.432;6.880;2022-08-20T09:47:46;100952.00;;;30.10
12061;BMP180;6091;51.432;6.880;2022-08-20T09:50:25;100954.00;;;30.10
12061;BMP180;6091;51.432;6.880;2022-08-20T09:52:56;100941.00;;;30.10
12061;BMP180;6091;51.432;6.880;2022-08-20T09:55:35;100949.00;;;30.10
12061;BMP180;6091;51.432;6.880;2022-08-20T10:00:46;100952.00;;;30.10
12061;BMP180;6091;51.432;6.880;2022-08-20T10:03:14;100946.00;;;30.10
12061;BMP180;6091;51.432;6.880;2022-08-20T10:05:41;100955.00;;;30.20
12061;BMP180;6091;51.432;6.880;2022-08-20T10:08:11;100952.00;;;30.20
12061;BMP180;6091;51.432;6.880;2022-08-20T10:10:39;100952.00;;;30.20
12061;BMP180;6091;51.432;6.880;2022-08-20T10:13:08;100959.00;;;30.30
12061;BMP180;6091;51.432;6.880;2022-08-20T10:15:41;100962.00;;;30.30
12061;BMP180;6091;51.432;6.880;2022-08-20T10:18:08;100955.00;;;30.30
12061;BMP180;6091;51.432;6.880;2022-08-20T10:20:38;100964.00;;;30.40
12061;BMP180;6091;51.432;6.880;2022-08-20T10:23:06;100960.00;;;30.40
12061;BMP180;6091;51.432;6.880;2022-08-20T10:25:33;100957.00;;;30.50
12061;BMP180;6091;51.432;6.880;2022-08-20T10:28:00;100962.00;;;30.60
12061;BMP180;6091;51.432;6.880;2022-08-20T10:30:28;100965.00;;;30.60
12061;BMP180;6091;51.432;6.880;2022-08-20T10:32:55;100964.00;;;30.70
12061;BMP180;6091;51.432;6.880;2022-08-20T10:35:24;100958.00;;;30.70
12061;BMP180;6091;51.432;6.880;2022-08-20T10:37:51;100966.00;;;30.70
12061;BMP180;6091;51.432;6.880;2022-08-20T10:40:19;100960.00;;;30.80
12061;BMP180;6091;51.432;6.880;2022-08-20T10:42:48;100951.00;;;30.80
12061;BMP180;6091;51.432;6.880;2022-08-20T10:45:16;100966.00;;;30.80
12061;BMP180;6091;51.432;6.880;2022-08-20T10:47:43;100969.00;;;30.80
12061;BMP180;6091;51.432;6.880;2022-08-20T10:50:15;100972.00;;;30.90
12061;BMP180;6091;51.432;6.880;2022-08-20T10:52:42;100967.00;;;30.90
12061;BMP180;6091;51.432;6.880;2022-08-20T10:55:10;100970.00;;;30.90
12061;BMP180;6091;51.432;6.880;2022-08-20T10:57:39;100966.00;;;31.00
12061;BMP180;6091;51.432;6.880;2022-08-20T11:00:15;100969.00;;;31.00
12061;BMP180;6091;51.432;6.880;2022-08-20T11:02:43;100964.00;;;31.10
12061;BMP180;6091;51.432;6.880;2022-08-20T11:05:10;100962.00;;;31.20
12061;BMP180;6091;51.432;6.880;2022-08-20T11:07:41;100964.00;;;31.30
12061;BMP180;6091;51.432;6.880;2022-08-20T11:10:25;100970.00;;;31.50
12061;BMP180;6091;51.432;6.880;2022-08-20T11:12:53;100969.00;;;31.50
12061;BMP180;6091;51.432;6.880;2022-08-20T11:15:20;100964.00;;;31.60
12061;BMP180;6091;51.432;6.880;2022-08-20T11:17:48;100970.00;;;31.70
12061;BMP180;6091;51.432;6.880;2022-08-20T11:20:19;100965.00;;;31.80
12061;BMP180;6091;51.432;6.880;2022-08-20T11:22:47;100970.00;;;31.90
12061;BMP180;6091;51.432;6.880;2022-08-20T11:25:14;100962.00;;;32.00
12061;BMP180;6091;51.432;6.880;2022-08-20T11:27:45;100968.00;;;32.10
12061;BMP180;6091;51.432;6.880;2022-08-20T11:30:29;100976.00;;;32.20
12061;BMP180;6091;51.432;6.880;2022-08-20T11:32:59;100979.00;;;32.30
12061;BMP180;6091;51.432;6.880;2022-08-20T11:35:30;100980.00;;;32.50
12061;BMP180;6091;51.432;6.880;2022-08-20T11:38:16;100981.00;;;32.80
12061;BMP180;6091;51.432;6.880;2022-08-20T11:40:44;100973.00;;;33.10
12061;BMP180;6091;51.432;6.880;2022-08-20T11:43:13;100981.00;;;33.40
12061;BMP180;6091;51.432;6.880;2022-08-20T11:45:48;100978.00;;;33.70
12061;BMP180;6091;51.432;6.880;2022-08-20T11:48:16;100979.00;;;34.00
12061;BMP180;6091;51.432;6.880;2022-08-20T11:50:45;100983.00;;;34.20
12061;BMP180;6091;51.432;6.880;2022-08-20T11:53:12;100984.00;;;34.50
12061;BMP180;6091;51.432;6.880;2022-08-20T11:55:41;100990.00;;;34.60
12061;BMP180;6091;51.432;6.880;2022-08-20T11:58:09;100991.00;;;34.80
12061;BMP180;6091;51.432;6.880;2022-08-20T12:00:36;100985.00;;;34.90
12061;BMP180;6091;51.432;6.880;2022-08-20T12:03:06;100985.00;;;35.10
12061;BMP180;6091;51.432;6.880;2022-08-20T12:05:37;100984.00;;;35.30
12061;BMP180;6091;51.432;6.880;2022-08-20T12:08:05;100981.00;;;35.40
12061;BMP180;6091;51.432;6.880;2022-08-20T12:10:33;100989.00;;;35.50
12061;BMP180;6091;51.432;6.880;2022-08-20T12:13:03;100995.00;;;35.60
12061;BMP180;6091;51.432;6.880;2022-08-20T12:15:35;100990.00;;;35.60
12061;BMP180;6091;51.432;6.880;2022-08-20T12:18:07;100983.00;;;35.70
12061;BMP180;6091;51.432;6.880;2022-08-20T12:20:35;100984.00;;;35.60
12061;BMP180;6091;51.432;6.880;2022-08-20T12:23:03;100978.00;;;35.60
12061;BMP180;6091;51.432;6.880;2022-08-20T12:25:31;100980.00;;;35.70
12061;BMP180;6091;51.432;6.880;2022-08-20T12:27:59;100976.00;;;35.70
12061;BMP180;6091;51.432;6.880;2022-08-20T12:30:26;100981.00;;;35.70
12061;BMP180;6091;51.432;6.880;2022-08-20T12:32:56;100984.00;;;35.60
12061;BMP180;6091;51.432;6.880;2022-08-20T12:35:24;100981.00;;;35.60
12061;BMP180;6091;51.432;6.880;2022-08-20T12:37:51;100976.00;;;35.60
12061;BMP180;6091;51.432;6.880;2022-08-20T12:40:23;100979.00;;;35.60
12061;BMP180;6091;51.432;6.880;2022-08-20T12:43:00;100976.00;;;35.50
12061;BMP180;6091;51.432;6.880;2022-08-20T12:45:32;100975.00;;;35.40
12061;BMP180;6091;51.432;6.880;2022-08-20T12:48:10;100971.00;;;35.40
12061;BMP180;6091;51.432;6.880;2022-08-20T12:50:41;100975.00;;;35.40
12061;BMP180;6091;51.432;6.880;2022-08-20T12:53:08;100975.00;;;35.30
12061;BMP180;6091;51.432;6.880;2022-08-20T12:55:38;100980.00;;;35.20
12061;BMP180;6091;51.432;6.880;2022-08-20T12:58:08;100984.00;;;35.00
12061;BMP180;6091;51.432;6.880;2022-08-20T13:00:43;100962.00;;;35.00
12061;BMP180;6091;51.432;6.880;2022-08-20T13:03:20;100971.00;;;34.80
12061;BMP180;6091;51.432;6.880;2022-08-20T13:05:48;100963.00;;;34.70
12061;BMP180;6091;51.432;6.880;2022-08-20T13:08:18;100964.00;;;34.60
12061;BMP180;6091;51.432;6.880;2022-08-20T13:10:45;100966.00;;;34.50
12061;BMP180;6091;51.432;6.880;2022-08-20T13:13:14;100972.00;;;34.40
12061;BMP180;6091;51.432;6.880;2022-08-20T13:15:47;100978.00;;;34.30
12061;BMP180;6091;51.432;6.880;2022-08-20T13:18:14;100967.00;;;34.20
12061;BMP180;6091;51.432;6.880;2022-08-20T13:20:41;100971.00;;;34.10
12061;BMP180;6091;51.432;6.880;2022-08-20T13:23:08;100976.00;;;34.00
12061;BMP180;6091;51.432;6.880;2022-08-20T13:25:35;100967.00;;;33.90
12061;BMP180;6091;51.432;6.880;2022-08-20T13:28:03;100966.00;;;33.80
12061;BMP180;6091;51.432;6.880;2022-08-20T13:30:33;100966.00;;;33.70
12061;BMP180;6091;51.432;6.880;2022-08-20T13:33:01;100964.00;;;33.60
12061;BMP180;6091;51.432;6.880;2022-08-20T13:35:29;100957.00;;;33.50
12061;BMP180;6091;51.432;6.880;2022-08-20T13:37:56;100951.00;;;33.40
12061;BMP180;6091;51.432;6.880;2022-08-20T13:40:24;100957.00;;;33.40
12061;BMP180;6091;51.432;6.880;2022-08-20T13:42:51;100958.00;;;33.40
12061;BMP180;6091;51.432;6.880;2022-08-20T13:45:21;100953.00;;;33.30
12061;BMP180;6091;51.432;6.880;2022-08-20T13:47:53;100965.00;;;33.20
12061;BMP180;6091;51.432;6.880;2022-08-20T13:50:24;100959.00;;;33.20
12061;BMP180;6091;51.432;6.880;2022-08-20T13:52:52;100954.00;;;33.10
12061;BMP180;6091;51.432;6.880;2022-08-20T13:55:25;100953.00;;;33.10
12061;BMP180;6091;51.432;6.880;2022-08-20T13:57:54;100959.00;;;33.00
12061;BMP180;6091;51.432;6.880;2022-08-20T14:00:29;100954.00;;;33.00
12061;BMP180;6091;51.432;6.880;2022-08-20T14:03:03;100956.00;;;33.00
12061;BMP180;6091;51.432;6.880;2022-08-20T14:05:33;100947.00;;;33.00
12061;BMP180;6091;51.432;6.880;2022-08-20T14:08:16;100950.00;;;32.90
12061;BMP180;6091;51.432;6.880;2022-08-20T14:10:44;100942.00;;;32.90
12061;BMP180;6091;51.432;6.880;2022-08-20T14:13:20;100945.00;;;33.00
12061;BMP180;6091;51.432;6.880;2022-08-20T14:15:48;100939.00;;;33.00
12061;BMP180;6091;51.432;6.880;2022-08-20T14:18:15;100956.00;;;33.00
12061;BMP180;6091;51.432;6.880;2022-08-20T14:20:44;100950.00;;;33.00
12061;BMP180;6091;51.432;6.880;2022-08-20T14:23:12;100943.00;;;33.00
12061;BMP180;6091;51.432;6.880;2022-08-20T14:25:44;100952.00;;;33.00
12061;BMP180;6091;51.432;6.880;2022-08-20T14:28:16;100936.00;;;33.00
12061;BMP180;6091;51.432;6.880;2022-08-20T14:30:45;100939.00;;;33.00
12061;BMP180;6091;51.432;6.880;2022-08-20T14:33:21;100940.00;;;33.00
12061;BMP180;6091;51.432;6.880;2022-08-20T14:35:48;100942.00;;;33.00
12061;BMP180;6091;51.432;6.880;2022-08-20T14:38:15;100942.00;;;33.00
12061;BMP180;6091;51.432;6.880;2022-08-20T14:40:42;100939.00;;;33.00